createdAt,value
2018-03-01T00:00:58.979Z,67.1
2018-03-01T00:10:58.683Z,67.5
2018-03-01T00:20:58.524Z,53.8
2018-03-01T00:30:58.347Z,75.9
2018-03-01T00:40:59.037Z,65.9
2018-03-01T00:50:59.000Z,66.6
2018-03-01T01:00:58.906Z,72.3
2018-03-01T01:10:58.678Z,71.7
2018-03-01T01:20:58.619Z,72.2
2018-03-01T01:30:58.373Z,101.1
2018-03-01T01:40:59.077Z,123.1
2018-03-01T01:50:58.825Z,110.8
2018-03-01T02:00:58.733Z,134.6
2018-03-01T02:10:58.470Z,156.6
2018-03-01T02:20:58.334Z,181.6
2018-03-01T02:30:59.067Z,176.8
2018-03-01T02:40:58.864Z,155.9
2018-03-01T02:50:58.598Z,178.8
2018-03-01T03:00:58.355Z,153.6
2018-03-01T03:10:59.084Z,151.6
2018-03-01T03:20:58.985Z,148.5
2018-03-01T03:30:58.889Z,165.2
2018-03-01T03:40:58.632Z,157.3
2018-03-01T03:50:58.400Z,152.7
2018-03-01T04:00:59.179Z,144.2
2018-03-01T04:10:58.852Z,159.9
2018-03-01T04:20:58.628Z,141.1
2018-03-01T04:30:58.346Z,156.2
2018-03-01T04:40:59.064Z,188.8
2018-03-01T04:50:58.778Z,198.3
2018-03-01T05:00:58.499Z,175.1
2018-03-01T05:10:58.247Z,186.2
2018-03-01T05:20:59.096Z,169.1
2018-03-01T05:30:58.517Z,173.1
2018-03-01T05:40:58.212Z,168.8
2018-03-01T05:50:58.908Z,170.4
2018-03-01T06:00:58.656Z,170.1
2018-03-01T06:10:58.398Z,173.0
2018-03-01T06:20:58.191Z,175.1
2018-03-01T06:30:58.899Z,172.5
2018-03-01T06:40:58.574Z,200.0
2018-03-01T06:50:58.267Z,192.5
2018-03-01T07:00:58.982Z,189.2
2018-03-01T07:10:58.655Z,202.6
2018-03-01T07:20:58.438Z,210.8
2018-03-01T07:30:59.138Z,210.3
2018-03-01T07:40:58.863Z,204.8
2018-03-01T07:50:58.638Z,181.2
2018-03-01T08:00:58.332Z,98.0
2018-03-01T08:10:59.030Z,72.0
2018-03-01T08:20:58.862Z,117.6
2018-03-01T08:30:58.560Z,87.5
2018-03-01T08:40:58.278Z,59.1
2018-03-01T08:50:58.998Z,68.2
2018-03-01T09:00:58.693Z,61.3
2018-03-01T09:10:58.450Z,67.0
2018-03-01T09:20:58.270Z,56.1
2018-03-01T09:30:59.023Z,62.7
2018-03-01T09:40:58.712Z,58.1
2018-03-01T09:50:58.405Z,39.1
2018-03-01T10:00:59.116Z,54.8
2018-03-01T10:10:58.821Z,23.5
2018-03-01T10:20:58.660Z,49.4
2018-03-01T10:30:58.437Z,33.0
2018-03-01T10:40:59.337Z,23.2
2018-03-01T10:50:59.069Z,44.8
2018-03-01T11:00:58.870Z,43.1
2018-03-01T11:10:58.668Z,44.1
2018-03-01T11:20:58.579Z,26.5
2018-03-01T11:30:58.344Z,61.2
2018-03-01T11:40:59.131Z,43.9
2018-03-01T11:50:58.869Z,52.1
2018-03-01T12:00:58.657Z,44.1
2018-03-01T12:10:58.419Z,41.0
2018-03-01T12:20:58.313Z,54.4
2018-03-01T12:30:59.083Z,58.6
2018-03-01T12:40:58.840Z,79.0
2018-03-01T12:50:58.576Z,68.6
2018-03-01T13:00:58.333Z,49.9
2018-03-01T13:10:59.067Z,41.6
2018-03-01T13:20:58.945Z,52.2
2018-03-01T13:30:58.718Z,57.3
2018-03-01T13:40:58.489Z,56.6
2018-03-01T13:50:58.236Z,68.9
2018-03-01T14:00:58.993Z,73.7
2018-03-01T14:10:58.778Z,64.9
2018-03-01T14:20:58.951Z,74.8
2018-03-01T14:30:58.719Z,65.2
2018-03-01T14:40:58.433Z,57.5
2018-03-01T14:50:58.289Z,75.1
2018-03-01T15:00:59.079Z,82.3
2018-03-01T15:10:58.881Z,68.1
2018-03-01T15:20:58.826Z,59.6
2018-03-01T15:30:58.620Z,61.4
2018-03-01T15:40:58.360Z,53.3
2018-03-01T15:50:59.080Z,57.1
2018-03-01T16:00:58.903Z,69.8
2018-03-01T16:10:58.622Z,62.5
2018-03-01T16:20:58.511Z,77.6
2018-03-01T16:30:58.239Z,78.0
2018-03-01T16:40:59.046Z,66.0
2018-03-01T16:50:58.886Z,73.8
2018-03-01T17:00:58.604Z,86.1
2018-03-01T17:10:58.318Z,75.4
2018-03-01T17:20:58.119Z,87.6
2018-03-01T17:30:58.835Z,84.7
2018-03-01T17:40:58.534Z,93.7
2018-03-01T17:50:58.202Z,102.9
2018-03-01T18:00:58.844Z,113.0
2018-03-01T18:10:58.537Z,113.8
2018-03-01T18:20:58.449Z,95.6
2018-03-01T18:30:58.089Z,99.8
2018-03-01T18:40:58.752Z,97.5
2018-03-01T18:50:58.553Z,82.8
2018-03-01T19:00:58.328Z,100.3
2018-03-01T19:10:59.123Z,82.1
2018-03-01T19:20:59.039Z,54.1
2018-03-01T19:30:58.750Z,70.4
2018-03-01T19:40:58.524Z,71.9
2018-03-01T19:50:58.229Z,65.1
2018-03-01T20:00:59.939Z,77.1
2018-03-01T20:10:58.650Z,74.5
2018-03-01T20:20:58.428Z,67.0
2018-03-01T20:30:58.132Z,79.8
2018-03-01T20:40:58.744Z,72.9
2018-03-01T20:50:58.424Z,71.9
2018-03-01T21:00:58.116Z,68.1
2018-03-01T21:10:58.836Z,68.1
2018-03-01T21:20:58.667Z,72.9
2018-03-01T21:30:58.458Z,74.0
2018-03-01T21:40:58.254Z,52.9
2018-03-01T21:50:58.974Z,69.7
2018-03-01T22:00:58.745Z,74.1
2018-03-01T22:10:58.492Z,68.1
2018-03-01T22:20:58.337Z,60.6
2018-03-01T22:30:59.148Z,74.0
2018-03-01T22:40:58.964Z,65.0
2018-03-01T22:50:58.747Z,81.3
2018-03-01T23:00:58.545Z,80.0
2018-03-01T23:10:58.269Z,78.2
2018-03-01T23:20:58.179Z,84.0
2018-03-01T23:30:59.022Z,83.7
2018-03-01T23:40:58.783Z,80.6
2018-03-01T23:50:58.570Z,79.4
